Time;durP1;ratioP1;P1;durP2;ratioP2;P2;SDS_P1;SDS_P2;PMS_P1;PMS_P2;Temp;Humidity;BMP_temperature;BMP_pressure;BME280_temperature;BME280_humidity;BME280_pressure;Samples;Min_cycle;Max_cycle;Signal;HPM_P1;HPM_P2
2022/11/21 00:01:00;;;;;;;0.50;0.50;;;;;;;12.56;100.00;98935.47;5049236;28;20196;-82
2022/11/21 00:03:27;;;;;;;0.60;0.60;;;;;;;12.62;100.00;98961.41;5049247;28;20237;-83
2022/11/21 00:05:53;;;;;;;0.60;0.60;;;;;;;12.52;100.00;98968.44;5049168;28;20204;-83
2022/11/21 00:08:21;;;;;;;0.60;0.60;;;;;;;12.18;100.00;98944.53;5049587;28;20987;-83
2022/11/21 00:10:49;;;;;;;2.90;1.25;;;;;;;12.15;100.00;98939.38;5049737;28;20195;-84
2022/11/21 00:13:18;;;;;;;0.80;0.80;;;;;;;12.30;100.00;98964.34;5027964;28;20224;-83
2022/11/21 00:15:45;;;;;;;0.50;0.50;;;;;;;12.06;100.00;98913.47;5049242;28;20212;-82
2022/11/21 00:18:13;;;;;;;0.60;0.60;;;;;;;12.30;100.00;98949.63;5049069;28;20207;-82
2022/11/21 00:20:41;;;;;;;0.60;0.60;;;;;;;12.28;100.00;98932.31;5050324;28;20192;-82
2022/11/21 00:23:08;;;;;;;0.52;0.52;;;;;;;12.30;100.00;98921.03;5049630;28;20195;-81
2022/11/21 00:25:35;;;;;;;0.50;0.50;;;;;;;12.14;100.00;98898.69;5048868;28;20192;-81
2022/11/21 00:28:02;;;;;;;0.60;0.60;;;;;;;12.00;100.00;98892.75;5049622;28;20211;-81
2022/11/21 00:30:29;;;;;;;1.30;1.30;;;;;;;12.07;100.00;98886.63;5048449;28;20679;-81
2022/11/21 00:32:55;;;;;;;0.65;0.65;;;;;;;11.95;100.00;98884.13;5049271;28;20222;-81
2022/11/21 00:35:24;;;;;;;0.98;0.98;;;;;;;12.01;100.00;98884.09;5048285;28;20675;-82
2022/11/21 00:37:51;;;;;;;0.50;0.50;;;;;;;12.05;100.00;98896.19;5049091;28;20211;-82
2022/11/21 00:40:18;;;;;;;0.60;0.60;;;;;;;11.91;100.00;98859.94;5050126;28;20214;-81
2022/11/21 00:42:44;;;;;;;0.60;0.60;;;;;;;12.03;100.00;98871.94;5049182;28;20727;-81
2022/11/21 00:45:11;;;;;;;0.67;0.67;;;;;;;11.83;100.00;98860.91;5050747;28;20195;-80
2022/11/21 00:47:38;;;;;;;0.53;0.53;;;;;;;11.62;100.00;98861.06;5048712;28;20318;-81
2022/11/21 00:50:06;;;;;;;0.60;0.60;;;;;;;11.64;100.00;98847.19;5049174;28;20200;-81
2022/11/21 00:52:34;;;;;;;0.60;0.60;;;;;;;11.52;100.00;98844.72;5048378;28;20203;-82
2022/11/21 00:55:01;;;;;;;0.97;0.97;;;;;;;11.30;100.00;98838.84;5048788;28;20196;-81
2022/11/21 00:57:28;;;;;;;0.80;0.80;;;;;;;11.27;100.00;98815.50;5048694;28;20208;-80
2022/11/21 00:59:55;;;;;;;1.80;1.70;;;;;;;11.13;100.00;98806.13;5046667;28;20195;-81
2022/11/21 01:02:21;;;;;;;0.60;0.60;;;;;;;10.96;100.00;98785.50;5048400;28;20238;-80
2022/11/21 01:04:48;;;;;;;0.60;0.60;;;;;;;11.06;100.00;98805.28;5013372;28;20246;-82
2022/11/21 01:07:15;;;;;;;0.70;0.70;;;;;;;10.97;100.00;98789.81;5012491;28;20227;-81
2022/11/21 01:09:43;;;;;;;0.60;0.60;;;;;;;11.04;100.00;98790.63;5048217;28;20203;-80
2022/11/21 01:12:10;;;;;;;0.50;0.50;;;;;;;10.92;100.00;98768.22;5049282;28;20745;-82
2022/11/21 01:14:37;;;;;;;0.60;0.60;;;;;;;10.91;100.00;98748.38;5048501;28;21010;-81
2022/11/21 01:17:03;;;;;;;1.00;1.00;;;;;;;10.89;100.00;98719.00;5047965;28;20208;-80
2022/11/21 01:19:30;;;;;;;0.70;0.70;;;;;;;10.79;100.00;98706.97;5048219;28;20203;-81
2022/11/21 01:21:57;;;;;;;0.60;0.60;;;;;;;10.81;100.00;98713.00;5048004;28;20195;-80
2022/11/21 01:24:24;;;;;;;0.50;0.50;;;;;;;10.84;100.00;98702.63;5048276;28;21069;-81
2022/11/21 01:26:53;;;;;;;0.60;0.60;;;;;;;10.92;100.00;98687.84;5047464;28;20700;-80
2022/11/21 01:29:20;;;;;;;0.60;0.60;;;;;;;11.02;100.00;98668.75;5047613;28;20351;-81
2022/11/21 01:31:47;;;;;;;0.50;0.50;;;;;;;10.93;100.00;98668.84;5047973;28;20210;-80
2022/11/21 01:34:14;;;;;;;1.43;1.43;;;;;;;10.87;100.00;98658.53;5048137;28;20238;-81
2022/11/21 01:36:41;;;;;;;0.60;0.60;;;;;;;10.77;100.00;98649.13;5047722;28;20286;-81
2022/11/21 01:39:08;;;;;;;0.50;0.50;;;;;;;10.74;100.00;98647.38;5048286;28;20218;-80
2022/11/21 01:41:38;;;;;;;0.60;0.60;;;;;;;10.70;100.00;98640.50;5048744;28;20214;-81
2022/11/21 01:44:16;;;;;;;1.23;1.23;;;;;;;10.70;100.00;98634.50;5047434;28;20211;-81
2022/11/21 01:46:43;;;;;;;0.60;0.60;;;;;;;10.64;100.00;98613.78;5048289;28;20202;-82
2022/11/21 01:49:12;;;;;;;0.80;0.80;;;;;;;10.66;100.00;98607.75;5046713;28;20195;-82
2022/11/21 01:51:44;;;;;;;0.60;0.60;;;;;;;10.57;100.00;98575.84;5046983;28;20591;-81
2022/11/21 01:54:14;;;;;;;0.70;0.70;;;;;;;10.76;100.00;98630.09;5046645;28;20208;-82
2022/11/21 01:56:47;;;;;;;0.60;0.60;;;;;;;10.74;100.00;98616.28;5047887;28;20305;-82
2022/11/21 01:59:18;;;;;;;2.60;2.50;;;;;;;10.63;100.00;98606.91;5047726;28;20795;-82
2022/11/21 02:01:48;;;;;;;0.60;0.60;;;;;;;10.62;100.00;98595.69;5046510;28;20202;-83
2022/11/21 02:04:15;;;;;;;0.87;0.87;;;;;;;10.65;100.00;98595.66;5046897;28;20231;-83
2022/11/21 02:06:43;;;;;;;0.60;0.60;;;;;;;10.58;100.00;98593.97;5048135;28;20203;-82
2022/11/21 02:09:10;;;;;;;0.67;0.67;;;;;;;10.45;100.00;98577.66;5047216;28;20207;-82
2022/11/21 02:11:41;;;;;;;0.53;0.53;;;;;;;10.73;100.00;98611.13;5048784;28;20203;-81
2022/11/21 02:14:09;;;;;;;0.50;0.50;;;;;;;10.65;100.00;98584.41;5047225;28;20192;-82
2022/11/21 02:16:37;;;;;;;0.70;0.70;;;;;;;10.71;100.00;98607.69;5047339;28;20716;-82
2022/11/21 02:19:04;;;;;;;0.80;0.80;;;;;;;10.73;100.00;98604.22;5046847;28;20188;-81
2022/11/21 02:21:42;;;;;;;1.10;1.10;;;;;;;10.74;100.00;98589.50;5015025;28;20203;-83
2022/11/21 02:24:15;;;;;;;0.50;0.50;;;;;;;10.73;100.00;98577.44;5051128;28;20207;-82
2022/11/21 02:26:44;;;;;;;0.40;0.40;;;;;;;10.45;100.00;98585.44;5051558;28;20629;-83
2022/11/21 02:29:11;;;;;;;0.60;0.60;;;;;;;10.19;100.00;98568.41;5051698;28;20265;-83
2022/11/21 02:31:38;;;;;;;0.87;0.87;;;;;;;10.29;100.00;98589.03;5050679;28;20204;-82
2022/11/21 02:34:05;;;;;;;0.50;0.50;;;;;;;10.19;100.00;98595.16;5047488;28;20191;-82
2022/11/21 02:36:39;;;;;;;0.83;0.83;;;;;;;10.14;100.00;98591.75;5047218;28;20210;-83
2022/11/21 02:39:09;;;;;;;0.60;0.60;;;;;;;10.33;100.00;98590.75;5046797;28;20305;-86
2022/11/21 02:41:40;;;;;;;1.07;1.07;;;;;;;10.35;100.00;98586.41;5048354;28;20195;-82
2022/11/21 02:44:18;;;;;;;0.60;0.60;;;;;;;10.61;100.00;98621.59;5048812;28;20195;-83
2022/11/21 02:46:50;;;;;;;0.50;0.50;;;;;;;10.57;100.00;98612.13;5055064;28;20199;-85
2022/11/21 02:49:24;;;;;;;0.60;0.60;;;;;;;10.73;100.00;98634.47;5055429;28;20196;-85
2022/11/21 02:51:51;;;;;;;1.10;1.10;;;;;;;10.74;100.00;98631.84;5053448;28;20229;-84
2022/11/21 02:54:18;;;;;;;1.00;1.00;;;;;;;10.65;100.00;98625.88;5056507;28;20195;-84
2022/11/21 02:56:44;;;;;;;1.80;0.90;;;;;;;10.57;100.00;98653.59;5054631;28;20203;-83
2022/11/21 02:59:12;;;;;;;0.53;0.53;;;;;;;10.66;100.00;98664.75;5054559;28;20208;-83
2022/11/21 03:01:39;;;;;;;0.60;0.60;;;;;;;10.73;100.00;98676.78;5046738;28;20582;-85
2022/11/21 03:04:06;;;;;;;0.60;0.60;;;;;;;10.58;100.00;98670.88;5046604;28;20659;-85
2022/11/21 03:06:33;;;;;;;1.23;1.23;;;;;;;10.63;100.00;98689.84;5047469;28;20196;-83
2022/11/21 03:08:59;;;;;;;0.87;0.87;;;;;;;10.46;100.00;98664.03;5046121;28;20226;-83
2022/11/21 03:11:26;;;;;;;0.87;0.87;;;;;;;10.33;100.00;98665.88;5047470;28;20207;-83
2022/11/21 03:13:53;;;;;;;0.87;0.87;;;;;;;10.33;100.00;98663.28;5047074;28;20207;-82
2022/11/21 03:16:21;;;;;;;0.50;0.50;;;;;;;10.31;100.00;98646.88;5046517;28;20203;-83
2022/11/21 03:18:48;;;;;;;0.60;0.60;;;;;;;10.36;100.00;98644.25;5046201;28;20261;-83
2022/11/21 03:21:15;;;;;;;0.50;0.50;;;;;;;10.44;100.00;98658.88;5046533;28;20208;-82
2022/11/21 03:23:42;;;;;;;0.50;0.50;;;;;;;10.26;100.00;98640.88;5046489;28;22408;-81
2022/11/21 03:26:08;;;;;;;0.60;0.60;;;;;;;10.12;100.00;98624.53;5046453;28;20633;-83
2022/11/21 03:28:35;;;;;;;0.50;0.50;;;;;;;10.20;100.00;98627.94;5027836;28;20219;-82
2022/11/21 03:31:02;;;;;;;0.60;0.60;;;;;;;10.11;100.00;98621.94;5049679;28;20900;-81
2022/11/21 03:33:30;;;;;;;0.50;0.50;;;;;;;10.06;100.00;98605.59;5050757;28;20199;-82
2022/11/21 03:35:57;;;;;;;0.70;0.70;;;;;;;9.74;100.00;98560.06;5050155;28;20200;-82
2022/11/21 03:38:24;;;;;;;0.50;0.50;;;;;;;9.96;100.00;98594.44;5050322;28;20207;-82
2022/11/21 03:40:50;;;;;;;0.53;0.53;;;;;;;9.89;100.00;98564.28;5050592;28;20615;-82
2022/11/21 03:43:17;;;;;;;0.57;0.57;;;;;;;9.98;100.00;98582.34;5014942;28;20656;-82
2022/11/21 03:45:46;;;;;;;0.50;0.50;;;;;;;9.90;100.00;98561.69;5016359;28;20699;-81
2022/11/21 03:48:13;;;;;;;0.70;0.70;;;;;;;9.55;100.00;98505.84;5049264;28;20313;-82
2022/11/21 03:50:44;;;;;;;1.00;1.00;;;;;;;9.68;100.00;98538.53;5014011;28;20210;-80
2022/11/21 03:53:11;;;;;;;0.60;0.60;;;;;;;9.49;100.00;98485.22;5049481;28;20600;-82
2022/11/21 03:55:38;;;;;;;0.60;0.60;;;;;;;9.51;100.00;98473.09;5014978;28;20273;-82
2022/11/21 03:58:05;;;;;;;0.60;0.60;;;;;;;9.62;100.00;98503.22;5013874;28;21002;-75
2022/11/21 04:00:31;;;;;;;0.60;0.60;;;;;;;9.66;100.00;98468.69;5048177;28;20439;-81
2022/11/21 04:02:58;;;;;;;3.20;3.00;;;;;;;9.70;100.00;98469.53;5050073;28;20232;-82
2022/11/21 04:05:25;;;;;;;2.73;1.63;;;;;;;9.60;100.00;98444.56;5051896;28;20207;-81
2022/11/21 04:07:53;;;;;;;0.83;0.83;;;;;;;9.80;100.00;98450.47;5049569;28;20656;-81
2022/11/21 04:10:20;;;;;;;0.50;0.50;;;;;;;9.89;100.00;98463.31;5050276;28;20102;-76
2022/11/21 04:12:47;;;;;;;0.90;0.90;;;;;;;10.23;100.00;98451.84;5049167;28;20644;-80
2022/11/21 04:15:14;;;;;;;0.70;0.70;;;;;;;9.90;100.00;98431.41;5014315;28;20257;-80
2022/11/21 04:17:41;;;;;;;0.60;0.60;;;;;;;9.97;100.00;98438.22;5048647;28;20211;-80
2022/11/21 04:20:09;;;;;;;0.60;0.60;;;;;;;9.94;100.00;98440.84;5049138;28;20219;-78
2022/11/21 04:22:36;;;;;;;0.55;0.55;;;;;;;9.96;100.00;98436.50;5047573;28;20958;-82
2022/11/21 04:25:04;;;;;;;0.60;0.60;;;;;;;10.01;100.00;98432.16;5048711;28;20451;-83
2022/11/21 04:27:31;;;;;;;1.00;1.00;;;;;;;10.00;100.00;98433.03;5049533;28;20207;-77
2022/11/21 04:29:58;;;;;;;0.70;0.70;;;;;;;9.93;100.00;98429.63;5013224;28;20245;-77
2022/11/21 04:32:24;;;;;;;0.70;0.70;;;;;;;10.03;100.00;98435.59;5048929;28;20207;-77
2022/11/21 04:34:51;;;;;;;0.50;0.50;;;;;;;9.98;100.00;98434.78;5029815;28;20942;-80
2022/11/21 04:37:18;;;;;;;0.70;0.70;;;;;;;9.88;100.00;98433.16;5048208;28;20218;-78
2022/11/21 04:39:45;;;;;;;0.70;0.70;;;;;;;9.94;100.00;98435.69;5048591;28;20199;-78
2022/11/21 04:42:13;;;;;;;0.90;0.90;;;;;;;10.05;100.00;98441.63;5049074;28;20215;-81
2022/11/21 04:44:40;;;;;;;0.70;0.70;;;;;;;10.17;100.00;98445.84;5050262;28;20207;-78
2022/11/21 04:47:06;;;;;;;1.60;1.57;;;;;;;10.10;100.00;98452.78;5049326;28;20208;-83
2022/11/21 04:49:33;;;;;;;0.80;0.80;;;;;;;10.11;100.00;98462.25;5048501;28;20223;-79
2022/11/21 04:52:00;;;;;;;0.77;0.77;;;;;;;10.15;100.00;98469.16;5013407;28;20577;-80
2022/11/21 04:54:27;;;;;;;1.00;1.00;;;;;;;10.16;100.00;98470.03;5029019;28;20230;-80
2022/11/21 04:56:53;;;;;;;1.03;1.03;;;;;;;10.14;100.00;98475.22;5048605;28;20211;-80
2022/11/21 04:59:22;;;;;;;1.03;1.03;;;;;;;10.23;100.00;98466.50;5048344;28;20215;-81
2022/11/21 05:01:48;;;;;;;0.70;0.70;;;;;;;10.14;100.00;98466.56;5048048;28;20210;-80
2022/11/21 05:04:15;;;;;;;0.60;0.60;;;;;;;9.98;100.00;98454.63;5049237;28;20238;-80
2022/11/21 05:06:42;;;;;;;1.00;1.00;;;;;;;10.16;100.00;98475.22;5051131;28;20265;-81
2022/11/21 05:09:09;;;;;;;0.70;0.70;;;;;;;10.14;100.00;98469.13;5048123;28;20234;-82
2022/11/21 05:14:19;;;;;;;0.83;0.83;;;;;;;10.17;100.00;98451.00;5032387;28;20222;-82
2022/11/21 05:16:48;;;;;;;1.00;1.00;;;;;;;10.25;100.00;98470.78;5029233;28;20200;-81
2022/11/21 05:19:15;;;;;;;0.60;0.60;;;;;;;10.26;100.00;98446.63;5047941;28;20659;-81
2022/11/21 05:21:41;;;;;;;0.80;0.80;;;;;;;10.36;100.00;98463.78;5047570;28;20200;-81
2022/11/21 05:24:08;;;;;;;0.53;0.53;;;;;;;10.34;100.00;98450.00;5012127;28;20204;-81
2022/11/21 05:26:36;;;;;;;0.60;0.60;;;;;;;10.40;100.00;98429.19;5048413;28;20196;-81
2022/11/21 05:29:03;;;;;;;1.67;1.57;;;;;;;10.53;100.00;98454.97;5047527;28;20695;-80
2022/11/21 05:31:30;;;;;;;0.70;0.70;;;;;;;10.63;100.00;98462.59;5047551;28;20196;-81
2022/11/21 05:33:58;;;;;;;0.60;0.60;;;;;;;10.75;100.00;98472.84;5048871;28;20762;-80
2022/11/21 05:36:25;;;;;;;0.70;0.70;;;;;;;10.78;100.00;98478.00;5029184;28;20202;-80
2022/11/21 05:38:52;;;;;;;0.60;0.60;;;;;;;10.82;100.00;98478.81;5011716;28;20548;-76
2022/11/21 05:41:19;;;;;;;0.53;0.53;;;;;;;10.83;100.00;98485.72;5011710;28;20683;-79
2022/11/21 05:43:44;;;;;;;0.50;0.50;;;;;;;10.83;100.00;98483.13;5047482;28;20218;-79
2022/11/21 05:46:12;;;;;;;0.40;0.40;;;;;;;10.78;100.00;98487.50;5029673;28;20676;-78
2022/11/21 05:48:39;;;;;;;0.83;0.83;;;;;;;10.85;100.00;98504.69;5047320;28;20695;-78
2022/11/21 05:51:07;;;;;;;0.70;0.70;;;;;;;10.92;100.00;98507.22;5047585;28;20192;-79
2022/11/21 05:53:34;;;;;;;0.60;0.60;;;;;;;10.80;100.00;98471.06;5046649;28;20206;-78
2022/11/21 05:56:03;;;;;;;0.60;0.60;;;;;;;10.96;100.00;98521.00;5047168;28;20210;-78
2022/11/21 05:58:30;;;;;;;0.60;0.60;;;;;;;10.76;100.00;98541.09;5046078;28;20261;-77
2022/11/21 06:00:57;;;;;;;1.33;1.33;;;;;;;10.72;100.00;98523.88;5047190;28;20785;-76
2022/11/21 06:03:26;;;;;;;0.90;0.90;;;;;;;10.83;100.00;98538.44;5048327;28;20287;-77
2022/11/21 06:05:58;;;;;;;0.50;0.50;;;;;;;10.87;100.00;98544.44;5047026;28;20196;-77
2022/11/21 06:08:26;;;;;;;0.80;0.80;;;;;;;11.00;100.00;98538.25;5045094;28;20794;-77
2022/11/21 06:10:53;;;;;;;0.77;0.77;;;;;;;11.18;100.00;98538.03;5030171;28;20200;-77
2022/11/21 06:13:22;;;;;;;0.60;0.60;;;;;;;11.28;100.00;98564.69;5042309;28;20215;-77
2022/11/21 06:15:51;;;;;;;0.60;0.60;;;;;;;11.35;100.00;98567.19;5044937;28;20219;-77
2022/11/21 06:18:18;;;;;;;0.50;0.50;;;;;;;11.39;100.00;98571.47;5044393;28;20215;-80
2022/11/21 06:20:45;;;;;;;0.60;0.60;;;;;;;11.47;100.00;98583.50;5051147;28;20656;-78
2022/11/21 06:23:12;;;;;;;0.63;0.63;;;;;;;11.38;100.00;98576.69;5050937;28;20199;-78
2022/11/21 06:25:40;;;;;;;0.60;0.60;;;;;;;11.39;100.00;98599.16;5048966;28;20283;-77
2022/11/21 06:28:07;;;;;;;0.80;0.80;;;;;;;11.43;100.00;98604.31;5050885;28;20227;-77
2022/11/21 06:30:34;;;;;;;0.70;0.70;;;;;;;11.40;100.00;98603.47;5050749;28;20206;-79
2022/11/21 06:33:04;;;;;;;0.60;0.60;;;;;;;11.63;100.00;98598.84;5050675;28;20204;-87
2022/11/21 06:35:31;;;;;;;0.60;0.60;;;;;;;11.42;100.00;98612.09;5050914;28;20200;-80
2022/11/21 06:37:58;;;;;;;0.60;0.60;;;;;;;11.27;100.00;98617.50;5050241;28;20196;-80
2022/11/21 06:40:25;;;;;;;0.80;0.80;;;;;;;11.11;100.00;98611.59;5050570;28;20206;-80
2022/11/21 06:42:53;;;;;;;0.70;0.70;;;;;;;11.19;100.00;98625.34;5037106;28;20208;-80
2022/11/21 06:45:20;;;;;;;2.57;2.47;;;;;;;10.70;100.00;98575.72;5051048;28;20196;-78
2022/11/21 06:47:47;;;;;;;0.60;0.60;;;;;;;11.24;100.00;98628.72;5015745;28;20211;-77
2022/11/21 06:50:14;;;;;;;0.70;0.70;;;;;;;11.30;100.00;98625.22;5031967;28;20590;-78
2022/11/21 06:52:40;;;;;;;0.90;0.90;;;;;;;11.44;100.00;98634.56;5050642;28;20683;-81
2022/11/21 06:55:09;;;;;;;0.70;0.70;;;;;;;11.42;100.00;98618.16;5050553;28;20199;-78
2022/11/21 06:57:35;;;;;;;0.60;0.60;;;;;;;11.64;100.00;98670.66;5050691;28;20636;-78
2022/11/21 07:00:04;;;;;;;0.93;0.90;;;;;;;11.71;100.00;98669.75;5050874;28;20628;-78
2022/11/21 07:02:31;;;;;;;0.60;0.60;;;;;;;11.86;100.00;98682.53;5015103;28;20239;-80
2022/11/21 07:04:58;;;;;;;0.70;0.70;;;;;;;11.84;100.00;98668.69;5048051;28;20204;-79
2022/11/21 07:07:24;;;;;;;0.80;0.80;;;;;;;11.99;100.00;98698.81;5045122;28;20257;-78
2022/11/21 07:09:51;;;;;;;0.60;0.60;;;;;;;12.17;100.00;98703.78;5054469;28;20304;-78
2022/11/21 07:15:04;;;;;;;1.00;1.00;;;;;;;11.98;100.00;98723.09;5054626;28;20287;-78
2022/11/21 07:17:30;;;;;;;0.60;0.60;;;;;;;11.91;100.00;98716.25;5036131;28;20612;-78
2022/11/21 07:19:57;;;;;;;0.60;0.60;;;;;;;11.92;100.00;98692.84;5039811;28;20576;-78
2022/11/21 07:22:24;;;;;;;1.45;1.45;;;;;;;12.07;100.00;98711.72;5041541;28;20683;-77
2022/11/21 07:24:51;;;;;;;0.70;0.70;;;;;;;12.25;100.00;98722.72;5054430;28;20484;-77
2022/11/21 07:27:17;;;;;;;0.50;0.50;;;;;;;12.32;100.00;98713.97;5054745;28;20200;-79
2022/11/21 07:29:44;;;;;;;0.65;0.65;;;;;;;12.00;100.00;98710.06;5054457;28;20226;-81
2022/11/21 07:32:12;;;;;;;0.70;0.70;;;;;;;12.15;100.00;98726.31;5019260;28;20211;-78
2022/11/21 07:34:39;;;;;;;0.70;0.70;;;;;;;12.23;100.00;98723.63;5054380;28;20199;-78
2022/11/21 07:37:06;;;;;;;0.60;0.60;;;;;;;12.12;100.00;98718.56;5053630;28;20215;-79
2022/11/21 07:39:33;;;;;;;0.60;0.60;;;;;;;12.23;100.00;98724.50;5054394;28;20745;-77
2022/11/21 07:41:59;;;;;;;0.50;0.50;;;;;;;12.23;100.00;98724.50;5053949;28;20624;-79
2022/11/21 07:44:26;;;;;;;0.77;0.77;;;;;;;12.42;100.00;98725.94;5054202;28;20203;-78
2022/11/21 07:46:54;;;;;;;0.80;0.80;;;;;;;12.37;100.00;98701.78;5054085;28;20706;-80
2022/11/21 07:49:22;;;;;;;0.50;0.50;;;;;;;12.55;100.00;98733.56;5018680;28;20227;-79
2022/11/21 07:51:49;;;;;;;0.50;0.50;;;;;;;12.66;100.00;98731.69;5053792;28;20203;-80
2022/11/21 07:54:16;;;;;;;0.40;0.40;;;;;;;12.95;100.00;98745.06;5053903;28;20210;-78
2022/11/21 07:56:43;;;;;;;0.60;0.60;;;;;;;12.97;100.00;98751.13;5015666;28;20247;-78
2022/11/21 07:59:10;;;;;;;0.82;0.82;;;;;;;12.87;100.00;98757.34;5049061;28;20679;-78
2022/11/21 08:01:37;;;;;;;0.93;0.93;;;;;;;12.88;100.00;98767.72;5053374;28;20207;-78
2022/11/21 08:04:04;;;;;;;0.60;0.60;;;;;;;12.68;100.00;98771.50;5034642;28;20235;-77
2022/11/21 08:06:32;;;;;;;0.50;0.50;;;;;;;12.58;100.00;98746.53;5053779;28;20207;-77
2022/11/21 08:08:59;;;;;;;0.45;0.45;;;;;;;12.51;100.00;98766.56;5053612;28;20226;-76
2022/11/21 08:11:26;;;;;;;0.60;0.60;;;;;;;12.49;100.00;98772.63;5053566;28;20200;-77
2022/11/21 08:13:52;;;;;;;0.47;0.47;;;;;;;12.44;100.00;98785.72;5053119;28;20203;-77
2022/11/21 08:16:19;;;;;;;0.50;0.50;;;;;;;12.51;100.00;98776.09;5052564;28;20229;-78
2022/11/21 08:18:46;;;;;;;0.52;0.52;;;;;;;12.54;100.00;98776.03;5052941;28;20211;-78
2022/11/21 08:21:13;;;;;;;0.73;0.73;;;;;;;12.36;100.00;98757.22;5053534;28;20199;-78
2022/11/21 08:23:41;;;;;;;0.70;0.70;;;;;;;12.26;100.00;98745.25;5053871;28;20644;-78
2022/11/21 08:26:10;;;;;;;0.60;0.60;;;;;;;12.40;100.00;98782.28;5053430;28;20199;-78
2022/11/21 08:28:37;;;;;;;0.50;0.50;;;;;;;12.33;100.00;98772.88;5016489;28;20228;-77
2022/11/21 08:31:04;;;;;;;0.60;0.60;;;;;;;12.46;100.00;98785.69;5052769;28;20210;-77
2022/11/21 08:33:31;;;;;;;0.70;0.70;;;;;;;12.42;100.00;98780.53;5018068;28;20282;-76
2022/11/21 08:35:58;;;;;;;0.47;0.47;;;;;;;12.30;100.00;98769.44;5053730;28;20204;-81
2022/11/21 08:38:25;;;;;;;0.60;0.60;;;;;;;12.29;100.00;98776.38;5049518;28;20211;-80
2022/11/21 08:43:33;;;;;;;0.50;0.50;;;;;;;12.26;100.00;98807.59;5045717;28;20706;-79
2022/11/21 08:46:00;;;;;;;0.60;0.60;;;;;;;12.26;100.00;98810.19;5047546;28;20659;-79
2022/11/21 08:48:27;;;;;;;0.47;0.47;;;;;;;12.16;100.00;98807.72;5044093;28;20708;-80
2022/11/21 08:50:56;;;;;;;0.60;0.60;;;;;;;12.09;100.00;98809.56;5052661;28;20207;-77
2022/11/21 08:53:23;;;;;;;0.67;0.67;;;;;;;11.97;100.00;98825.25;5052510;28;20200;-77
2022/11/21 08:55:50;;;;;;;0.77;0.77;;;;;;;11.92;100.00;98838.28;5052235;28;20208;-77
2022/11/21 08:58:18;;;;;;;0.60;0.60;;;;;;;11.86;100.00;98842.69;5052167;28;20200;-78
2022/11/21 09:00:45;;;;;;;0.50;0.50;;;;;;;11.89;100.00;98853.03;5052553;28;20589;-77
2022/11/21 09:03:12;;;;;;;2.30;2.20;;;;;;;11.96;100.00;98846.03;5017353;28;20242;-79
2022/11/21 09:05:39;;;;;;;0.97;0.97;;;;;;;12.25;100.00;98847.47;5040038;28;20218;-81
2022/11/21 09:08:05;;;;;;;0.60;0.60;;;;;;;11.88;100.00;98853.91;5051609;28;20191;-78
2022/11/21 09:10:32;;;;;;;0.50;0.50;;;;;;;11.52;100.00;98864.63;5052267;28;20235;-78
2022/11/21 09:12:59;;;;;;;0.70;0.70;;;;;;;11.20;100.00;98877.84;5016885;28;20199;-78
2022/11/21 09:18:12;;;;;;;0.70;0.70;;;;;;;10.95;100.00;98896.13;5010790;28;20207;-78
2022/11/21 09:20:40;;;;;;;0.80;0.80;;;;;;;10.94;100.00;98914.31;5016778;28;20210;-78
2022/11/21 09:23:08;;;;;;;0.50;0.50;;;;;;;10.70;100.00;98889.34;5052703;28;20572;-78
2022/11/21 09:25:35;;;;;;;0.80;0.80;;;;;;;10.51;100.00;98861.81;5052336;28;20204;-79
2022/11/21 09:28:03;;;;;;;0.50;0.50;;;;;;;10.83;100.00;98942.88;5040320;28;20200;-84
2022/11/21 09:30:31;;;;;;;0.60;0.60;;;;;;;10.77;100.00;98942.88;5030583;28;20230;-83
2022/11/21 09:33:00;;;;;;;0.60;0.60;;;;;;;10.79;100.00;98922.16;5041682;28;20226;-79
2022/11/21 09:35:27;;;;;;;0.80;0.80;;;;;;;10.69;100.00;98943.81;5040800;28;20231;-78
2022/11/21 09:37:54;;;;;;;0.60;0.60;;;;;;;10.70;100.00;98940.34;5033265;28;20707;-79
2022/11/21 09:40:22;;;;;;;0.60;0.60;;;;;;;10.71;100.00;98940.34;5051118;28;20439;-82
2022/11/21 09:43:00;;;;;;;0.60;0.60;;;;;;;10.80;100.00;98936.84;5050790;28;20207;-82
2022/11/21 09:45:32;;;;;;;0.50;0.50;;;;;;;10.65;100.00;98939.50;5051690;28;20758;-80
2022/11/21 09:48:03;;;;;;;0.50;0.50;;;;;;;10.49;100.00;98919.69;5051954;28;20584;-81
2022/11/21 09:50:34;;;;;;;0.60;0.60;;;;;;;10.46;100.00;98930.91;5051581;28;20227;-82
2022/11/21 09:53:05;;;;;;;0.60;0.60;;;;;;;10.23;100.00;98927.53;5052062;28;20207;-81
2022/11/21 09:55:40;;;;;;;0.97;0.97;;;;;;;10.20;100.00;98949.09;5051511;28;20191;-81
2022/11/21 09:58:16;;;;;;;0.50;0.50;;;;;;;10.05;100.00;98941.34;5051870;28;20207;-82
2022/11/21 10:00:43;;;;;;;0.53;0.53;;;;;;;10.01;100.00;98949.97;5051773;28;20206;-79
2022/11/21 10:03:12;;;;;;;0.60;0.60;;;;;;;9.91;100.00;98958.63;5040939;28;20236;-80
2022/11/21 10:05:45;;;;;;;0.93;0.93;;;;;;;9.79;100.00;98958.63;5033951;28;20205;-79
2022/11/21 10:08:29;;;;;;;0.70;0.70;;;;;;;9.69;100.00;98967.25;5051145;28;20206;-79
2022/11/21 10:11:01;;;;;;;0.50;0.50;;;;;;;9.68;100.00;98958.63;5015036;28;20269;-81
2022/11/21 10:13:46;;;;;;;0.50;0.50;;;;;;;9.53;100.00;98960.31;5036504;28;20208;-79
2022/11/21 10:16:20;;;;;;;0.80;0.80;;;;;;;9.48;100.00;98954.28;5051351;28;20207;-80
2022/11/21 10:19:08;;;;;;;0.50;0.50;;;;;;;9.45;100.00;98944.81;5051292;28;20190;-81
2022/11/21 10:21:57;;;;;;;0.60;0.60;;;;;;;9.43;100.00;98926.69;5051389;28;20203;-78
2022/11/21 10:24:39;;;;;;;0.70;0.70;;;;;;;9.44;100.00;98941.38;5051310;28;20210;-83
2022/11/21 10:27:14;;;;;;;0.63;0.63;;;;;;;9.66;100.00;98933.63;5051057;28;20223;-80
2022/11/21 10:29:49;;;;;;;0.67;0.67;;;;;;;9.70;100.00;98950.88;5051015;28;20215;-79
2022/11/21 10:32:23;;;;;;;0.53;0.53;;;;;;;9.75;100.00;98950.00;5050852;28;20237;-80
2022/11/21 10:34:55;;;;;;;0.60;0.60;;;;;;;9.96;100.00;98962.06;5051035;28;20286;-80
2022/11/21 10:37:32;;;;;;;0.60;0.60;;;;;;;9.98;100.00;98978.47;5049030;28;20199;-80
2022/11/21 10:40:13;;;;;;;0.60;0.60;;;;;;;9.97;100.00;98979.31;5050941;28;20227;-78
2022/11/21 10:42:49;;;;;;;0.47;0.47;;;;;;;10.20;100.00;98995.72;5051148;28;20203;-77
2022/11/21 10:45:18;;;;;;;0.50;0.50;;;;;;;10.29;100.00;99008.69;5037770;28;20208;-80
2022/11/21 10:47:47;;;;;;;0.60;0.60;;;;;;;10.37;100.00;99019.91;5050345;28;20280;-77
2022/11/21 10:50:42;;;;;;;0.40;0.40;;;;;;;10.41;100.00;98985.38;5050560;28;20223;-78
2022/11/21 10:56:04;;;;;;;0.60;0.60;;;;;;;10.51;100.00;99032.84;5050289;28;20702;-78
2022/11/21 10:58:42;;;;;;;0.57;0.57;;;;;;;10.57;100.00;99013.81;5050758;28;20203;-78
2022/11/21 11:01:25;;;;;;;0.70;0.70;;;;;;;10.60;100.00;99032.81;5050320;28;20856;-80
2022/11/21 11:04:15;;;;;;;0.60;0.60;;;;;;;10.80;100.00;99031.06;4988227;28;20270;-78
2022/11/21 11:06:45;;;;;;;0.60;0.60;;;;;;;10.85;100.00;99046.56;4899865;29;20212;-79
2022/11/21 11:09:23;;;;;;;0.40;0.40;;;;;;;11.09;100.00;99049.13;4911810;29;20224;-78
2022/11/21 11:11:50;;;;;;;0.80;0.80;;;;;;;11.09;100.00;99054.31;4900288;29;20215;-79
2022/11/21 11:14:29;;;;;;;0.50;0.50;;;;;;;11.39;100.00;99067.13;4911633;29;20212;-80
2022/11/21 11:16:56;;;;;;;0.50;0.50;;;;;;;11.20;100.00;99062.88;4896091;29;20260;-79
2022/11/21 11:19:26;;;;;;;0.60;0.60;;;;;;;11.59;100.00;99074.84;4911974;29;20204;-79
2022/11/21 11:21:56;;;;;;;0.60;0.60;;;;;;;11.54;100.00;99063.59;4911942;29;20411;-80
2022/11/21 11:24:28;;;;;;;0.60;0.60;;;;;;;11.68;100.00;99074.78;4911571;29;20311;-79
2022/11/21 11:27:00;;;;;;;0.47;0.47;;;;;;;11.70;100.00;99090.34;4911784;29;20204;-79
2022/11/21 11:29:29;;;;;;;0.70;0.70;;;;;;;11.63;100.00;99083.47;4899400;29;20204;-80
2022/11/21 11:31:59;;;;;;;0.50;0.50;;;;;;;11.77;100.00;99086.88;4898317;29;20258;-79
2022/11/21 11:34:29;;;;;;;0.43;0.43;;;;;;;11.91;100.00;99080.72;4911816;29;20205;-77
2022/11/21 11:37:08;;;;;;;0.50;0.50;;;;;;;12.00;100.00;99082.38;4911671;29;20204;-78
2022/11/21 11:39:41;;;;;;;0.53;0.53;;;;;;;11.88;100.00;99080.72;4912114;29;20216;-79
2022/11/21 11:48:04;;;;;;;0.60;0.60;;;;;;;11.75;100.00;99079.09;5050138;28;20234;-77
2022/11/21 11:50:35;;;;;;;0.50;0.50;;;;;;;11.75;100.00;99083.41;5050465;28;20703;-79
2022/11/21 11:53:10;;;;;;;0.50;0.50;;;;;;;11.76;100.00;99082.56;5053749;28;20218;-78